首页
METAR-TAF:

METAR-TAF

机场 :

杜拜, 阿拉伯联合酋长国

迪拜国际机场

纬度: 25-15-10N, 经度: 055-21-52E, 海拔: 8米

当前天气观测

该预报发布于18分钟前的03:00 UTC
风速4节,风向
温度 17°C
湿度 77%
气压 1018 hPa
能見度: 8000

METAR: OMDB 200300Z 08004KT 8000 NSC 17/13 Q1018 NOSIG

时间: 07:18 (03:18 UTC)

预报

该预报发布于4小时和15分钟前的23:03 UTC
预报有效从20日的 00点(UTC)到 21日的 06点(UTC)
风速5节,风向东转东北
能見度: 8000
几率 30%
从 20日的 01点(UTC)到 20日的 05点(UTC)
能見度: 4000
成为
从 20日的 09点(UTC)到 20日的 11点(UTC)
风速10节,风向西北
成为
从 20日的 15点(UTC)到 20日的 17点(UTC)
风速5节,风向

TAF: OMDB 192303Z 2000/2106 07005KT 8000 NSC PROB30 2001/2005 4000 HZ BECMG 2009/2011 32010KT BECMG 2015/2017 10005KT

超过4000个机场的气象观测和天气预报(METAR&TAF报告)。

可查询的气象台以黄色和红色小点在地图上表示。

将鼠标移到小点上方,可查看气象台名称。

然后点击查看天气观测和预报。

如需切换地图:点击带黑十字的绿色按钮放大地图;点击带横线的绿色按钮缩小地图;或者点击绿色箭头查看邻近地区的地图。


METAR-TAF: